createdAt,value
2022-11-16T00:00:26.409Z,95914.63
2022-11-16T00:01:29.442Z,95912.06
2022-11-16T00:02:31.447Z,95905.09
2022-11-16T00:03:33.845Z,95910.47
2022-11-16T00:04:35.790Z,95908.91
2022-11-16T00:05:37.695Z,95899.50
2022-11-16T00:06:40.243Z,95897.50
2022-11-16T00:07:42.061Z,95903.25
2022-11-16T00:08:45.562Z,95896.28
2022-11-16T00:09:47.379Z,95901.63
2022-11-16T00:10:49.189Z,95902.03
2022-11-16T00:11:55.068Z,95887.88
2022-11-16T00:12:56.906Z,95893.84
2022-11-16T00:13:58.810Z,95899.44
2022-11-16T00:15:00.637Z,95891.84
2022-11-16T00:16:02.462Z,95892.00
2022-11-16T00:17:04.577Z,95893.63
2022-11-16T00:18:06.449Z,95906.34
2022-11-16T00:19:08.586Z,95897.44
2022-11-16T00:20:10.814Z,95900.44
2022-11-16T00:21:12.588Z,95891.09
2022-11-16T00:22:14.411Z,95900.31
2022-11-16T00:23:16.293Z,95894.31
2022-11-16T00:24:19.375Z,95897.13
2022-11-16T00:25:21.179Z,95900.09
2022-11-16T00:26:24.420Z,95893.50
2022-11-16T00:27:26.258Z,95893.31
2022-11-16T00:28:28.526Z,95894.09
2022-11-16T00:29:30.355Z,95889.31
2022-11-16T00:30:32.221Z,95894.91
2022-11-16T00:31:34.038Z,95895.88
2022-11-16T00:32:35.875Z,95895.06
2022-11-16T00:33:37.816Z,95893.66
2022-11-16T00:34:40.020Z,95891.25
2022-11-16T00:35:41.850Z,95899.69
2022-11-16T00:36:43.869Z,95894.69
2022-11-16T00:37:45.653Z,95897.88
2022-11-16T00:38:47.842Z,95889.91
2022-11-16T00:39:49.755Z,95894.06
2022-11-16T00:40:51.540Z,95892.66
2022-11-16T00:41:53.456Z,95887.88
2022-11-16T00:42:55.319Z,95892.25
2022-11-16T00:43:57.130Z,95893.41
2022-11-16T00:44:59.010Z,95887.00
2022-11-16T00:46:00.928Z,95881.81
2022-11-16T00:47:02.768Z,95883.47
2022-11-16T00:48:04.621Z,95880.94
2022-11-16T00:49:06.418Z,95885.69
2022-11-16T00:50:08.343Z,95886.50
2022-11-16T00:51:10.215Z,95889.09
2022-11-16T00:52:12.099Z,95888.69
2022-11-16T00:53:15.603Z,95883.91
2022-11-16T00:54:17.424Z,95879.72
2022-11-16T00:55:19.260Z,95876.72
2022-11-16T00:56:21.074Z,95879.09
2022-11-16T00:57:23.011Z,95877.16
2022-11-16T00:58:24.951Z,95875.16
2022-11-16T00:59:26.763Z,95881.31
2022-11-16T01:00:28.658Z,95880.47
2022-11-16T01:01:30.490Z,95876.31
2022-11-16T01:02:32.318Z,95877.09
2022-11-16T01:03:35.008Z,95873.34
2022-11-16T01:04:36.839Z,95868.78
2022-11-16T01:05:38.655Z,95868.63
2022-11-16T01:06:40.523Z,95865.06
2022-11-16T01:07:42.331Z,95870.41
2022-11-16T01:08:44.524Z,95868.03
2022-11-16T01:09:46.265Z,95866.03
2022-11-16T01:10:48.159Z,95867.22
2022-11-16T01:12:08.494Z,95858.81
2022-11-16T01:13:11.240Z,95860.38
2022-11-16T01:14:13.167Z,95848.00
2022-11-16T01:15:15.991Z,95849.41
2022-11-16T01:16:18.814Z,95849.00
2022-11-16T01:17:20.624Z,95846.75
2022-11-16T01:18:22.415Z,95846.75
2022-11-16T01:19:24.236Z,95845.22
2022-11-16T01:20:27.599Z,95848.63
2022-11-16T01:21:29.374Z,95844.03
2022-11-16T01:22:31.197Z,95852.81
2022-11-16T01:23:33.125Z,95844.41
2022-11-16T01:24:35.027Z,95845.59
2022-11-16T01:25:37.009Z,95837.22
2022-11-16T01:26:38.780Z,95838.78
2022-11-16T01:27:41.313Z,95836.59
2022-11-16T01:28:43.179Z,95841.13
2022-11-16T01:29:45.593Z,95833.56
2022-11-16T01:30:48.611Z,95829.97
2022-11-16T01:31:50.535Z,95820.38
2022-11-16T01:32:52.353Z,95827.38
2022-11-16T01:33:54.726Z,95825.22
2022-11-16T01:34:56.511Z,95820.88
2022-11-16T01:35:58.369Z,95816.47
2022-11-16T01:37:00.211Z,95818.13
2022-11-16T01:38:01.962Z,95819.31
2022-11-16T01:39:04.833Z,95814.34
2022-11-16T01:40:07.033Z,95815.34
2022-11-16T01:41:09.331Z,95817.72
2022-11-16T01:42:18.056Z,95812.13
2022-11-16T01:43:22.157Z,95812.53
2022-11-16T01:44:33.045Z,95810.75
2022-11-16T01:45:44.253Z,95806.25
2022-11-16T01:46:45.993Z,95811.03
2022-11-16T01:47:48.024Z,95811.25
2022-11-16T01:48:50.968Z,95808.91
2022-11-16T01:50:04.675Z,95808.50
2022-11-16T01:51:06.514Z,95800.16
2022-11-16T01:52:10.486Z,95799.97
2022-11-16T01:53:13.216Z,95801.94
2022-11-16T01:54:15.100Z,95797.34
2022-11-16T01:55:17.174Z,95802.31
2022-11-16T01:56:19.225Z,95796.13
2022-11-16T01:57:28.190Z,95798.72
2022-11-16T01:58:30.291Z,95795.91
2022-11-16T01:59:32.707Z,95794.16
2022-11-16T02:00:34.501Z,95795.31
2022-11-16T02:01:36.371Z,95787.13
2022-11-16T02:02:38.247Z,95787.13
2022-11-16T02:03:40.256Z,95782.56
2022-11-16T02:04:42.516Z,95785.34
2022-11-16T02:06:03.177Z,95788.94
2022-11-16T02:07:16.473Z,95791.34
2022-11-16T02:08:47.804Z,95783.75
2022-11-16T02:10:09.826Z,95780.00
2022-11-16T02:11:29.750Z,95780.41
2022-11-16T02:12:38.389Z,95775.97
2022-11-16T02:13:57.119Z,95781.94
2022-11-16T02:14:58.987Z,95769.97
2022-11-16T02:16:21.000Z,95775.13
2022-11-16T02:17:35.027Z,95775.16
2022-11-16T02:18:46.397Z,95768.38
2022-11-16T02:20:06.605Z,95773.75
2022-11-16T02:21:18.605Z,95769.34
2022-11-16T02:22:29.398Z,95766.13
2022-11-16T02:23:49.976Z,95767.97
2022-11-16T02:25:01.035Z,95759.41
2022-11-16T02:26:11.726Z,95761.22
2022-11-16T02:27:32.222Z,95763.97
2022-11-16T02:28:52.427Z,95759.97
2022-11-16T02:29:55.700Z,95765.63
2022-11-16T02:31:00.569Z,95755.44
2022-11-16T02:32:09.018Z,95758.22
2022-11-16T02:33:13.592Z,95751.84
2022-11-16T02:34:16.997Z,95757.25
2022-11-16T02:35:22.273Z,95750.06
2022-11-16T02:36:25.266Z,95745.25
2022-11-16T02:37:28.809Z,95740.06
2022-11-16T02:38:34.328Z,95743.81
2022-11-16T02:39:37.634Z,95742.41
2022-11-16T02:40:41.422Z,95741.88
2022-11-16T02:41:44.584Z,95737.28
2022-11-16T02:42:58.350Z,95738.88
2022-11-16T02:44:03.411Z,95737.91
2022-11-16T02:45:07.050Z,95739.31
2022-11-16T02:46:12.627Z,95738.13
2022-11-16T02:47:18.486Z,95739.94
2022-11-16T02:48:26.424Z,95739.38
2022-11-16T02:49:29.376Z,95732.97
2022-11-16T02:50:33.144Z,95728.97
2022-11-16T02:51:36.847Z,95727.75
2022-11-16T02:52:39.600Z,95732.34
2022-11-16T02:53:58.117Z,95720.81
2022-11-16T02:54:59.926Z,95722.59
2022-11-16T02:56:01.901Z,95724.41
2022-11-16T02:57:03.657Z,95722.84
2022-11-16T02:58:12.012Z,95724.22
2022-11-16T02:59:17.526Z,95718.84
2022-11-16T03:00:21.902Z,95722.03
2022-11-16T03:01:29.732Z,95719.22
2022-11-16T03:02:46.990Z,95716.66
2022-11-16T03:04:02.199Z,95716.22
2022-11-16T03:05:13.954Z,95713.47
2022-11-16T03:06:42.025Z,95718.66
2022-11-16T03:07:50.276Z,95711.50
2022-11-16T03:09:03.322Z,95713.84
2022-11-16T03:10:05.351Z,95716.66
2022-11-16T03:11:27.241Z,95715.22
2022-11-16T03:12:31.390Z,95717.81
2022-11-16T03:13:34.211Z,95709.25
2022-11-16T03:14:39.040Z,95714.44
2022-11-16T03:15:41.635Z,95707.88
2022-11-16T03:16:46.039Z,95715.09
2022-11-16T03:17:50.276Z,95708.94
2022-11-16T03:18:54.109Z,95707.53
2022-11-16T03:20:02.137Z,95703.53
2022-11-16T03:21:06.672Z,95700.72
2022-11-16T03:22:14.741Z,95697.56
2022-11-16T03:23:16.693Z,95698.53
2022-11-16T03:24:18.630Z,95698.34
2022-11-16T03:25:21.575Z,95689.97
2022-11-16T03:26:27.073Z,95686.41
2022-11-16T03:27:39.635Z,95690.34
2022-11-16T03:28:47.897Z,95691.94
2022-11-16T03:30:01.042Z,95683.59
2022-11-16T03:31:06.411Z,95683.56
2022-11-16T03:32:28.436Z,95687.56
2022-11-16T03:33:35.686Z,95677.03
2022-11-16T03:34:38.331Z,95679.66
2022-11-16T03:35:46.183Z,95678.63
2022-11-16T03:36:50.372Z,95684.63
2022-11-16T03:37:53.985Z,95684.25
2022-11-16T03:38:59.648Z,95691.38
2022-11-16T03:40:03.008Z,95689.19
2022-11-16T03:41:07.782Z,95688.38
2022-11-16T03:42:14.260Z,95689.34
2022-11-16T03:43:17.771Z,95693.56
2022-11-16T03:44:20.936Z,95690.38
2022-11-16T03:45:22.801Z,95688.25
2022-11-16T03:46:24.626Z,95694.97
2022-11-16T03:47:26.472Z,95689.41
2022-11-16T03:48:36.046Z,95699.78
2022-11-16T03:49:38.143Z,95691.19
2022-11-16T03:50:41.051Z,95694.00
2022-11-16T03:51:42.998Z,95695.59
2022-11-16T03:52:44.851Z,95688.25
2022-11-16T03:53:46.699Z,95691.00
2022-11-16T03:54:48.579Z,95692.00
2022-11-16T03:55:50.394Z,95693.78
2022-11-16T03:56:52.218Z,95692.38
2022-11-16T03:57:54.130Z,95688.19
2022-11-16T03:58:55.997Z,95693.16
2022-11-16T03:59:57.863Z,95691.19
2022-11-16T04:01:00.419Z,95688.41
2022-11-16T04:02:02.362Z,95681.22
2022-11-16T04:03:04.350Z,95686.81
2022-11-16T04:04:06.160Z,95684.47
2022-11-16T04:05:26.896Z,95680.09
2022-11-16T04:06:47.318Z,95682.06
2022-11-16T04:08:07.818Z,95684.47
2022-11-16T04:09:28.845Z,95683.66
2022-11-16T04:10:49.029Z,95681.66
2022-11-16T04:12:09.746Z,95684.09
2022-11-16T04:13:30.883Z,95681.88
2022-11-16T04:14:51.561Z,95681.06
2022-11-16T04:16:11.843Z,95691.03
2022-11-16T04:17:33.783Z,95686.06
2022-11-16T04:18:53.881Z,95688.84
2022-11-16T04:20:14.004Z,95688.47
2022-11-16T04:21:54.857Z,95678.06
2022-11-16T04:23:19.116Z,95681.22
2022-11-16T04:24:23.663Z,95683.44
2022-11-16T04:25:27.520Z,95682.41
2022-11-16T04:26:47.903Z,95680.41
2022-11-16T04:28:08.619Z,95676.88
2022-11-16T04:29:11.238Z,95674.09
2022-11-16T04:30:13.358Z,95672.34
2022-11-16T04:31:33.718Z,95671.91
2022-11-16T04:32:54.802Z,95671.28
2022-11-16T04:34:15.167Z,95670.28
2022-11-16T04:35:48.695Z,95674.84
2022-11-16T04:37:08.946Z,95668.13
2022-11-16T04:38:10.778Z,95665.75
2022-11-16T04:39:12.563Z,95668.34
2022-11-16T04:40:15.218Z,95665.53
2022-11-16T04:41:35.292Z,95663.16
2022-11-16T04:42:37.110Z,95653.00
2022-11-16T04:43:38.994Z,95659.19
2022-11-16T04:44:59.216Z,95658.38
2022-11-16T04:46:19.389Z,95645.41
2022-11-16T04:47:21.207Z,95646.25
2022-11-16T04:48:23.124Z,95641.06
2022-11-16T04:49:25.046Z,95638.09
2022-11-16T04:50:26.939Z,95639.84
2022-11-16T04:51:28.855Z,95636.06
2022-11-16T04:52:30.638Z,95636.47
2022-11-16T04:53:32.472Z,95631.50
2022-11-16T04:54:34.373Z,95627.91
2022-11-16T04:55:36.392Z,95626.72
2022-11-16T04:56:38.177Z,95619.16
2022-11-16T04:57:40.377Z,95628.16
2022-11-16T04:58:42.136Z,95622.34
2022-11-16T04:59:43.993Z,95622.94
2022-11-16T05:00:45.834Z,95621.94
2022-11-16T05:02:06.019Z,95619.16
2022-11-16T05:03:07.911Z,95621.53
2022-11-16T05:04:09.843Z,95620.13
2022-11-16T05:05:11.711Z,95619.34
2022-11-16T05:06:13.580Z,95617.97
2022-11-16T05:07:15.928Z,95611.19
2022-11-16T05:08:17.865Z,95611.97
2022-11-16T05:09:19.711Z,95612.19
2022-11-16T05:10:21.790Z,95614.19
2022-11-16T05:11:24.254Z,95609.38
2022-11-16T05:12:26.843Z,95608.41
2022-11-16T05:13:28.786Z,95604.81
2022-11-16T05:14:30.578Z,95615.97
2022-11-16T05:15:32.515Z,95610.44
2022-11-16T05:16:34.398Z,95608.06
2022-11-16T05:17:36.566Z,95615.81
2022-11-16T05:18:38.430Z,95602.47
2022-11-16T05:19:58.605Z,95603.25
2022-11-16T05:21:03.270Z,95608.00
2022-11-16T05:22:05.078Z,95606.44
2022-11-16T05:23:26.825Z,95602.44
2022-11-16T05:24:34.696Z,95602.81
2022-11-16T05:25:37.123Z,95606.22
2022-11-16T05:26:39.197Z,95605.63
2022-11-16T05:27:40.972Z,95604.47
2022-11-16T05:28:42.811Z,95604.09
2022-11-16T05:29:45.269Z,95606.06
2022-11-16T05:30:47.083Z,95608.81
2022-11-16T05:31:48.975Z,95604.84
2022-11-16T05:32:50.920Z,95614.44
2022-11-16T05:33:52.748Z,95612.63
2022-11-16T05:34:55.001Z,95611.44
2022-11-16T05:35:56.819Z,95607.47
2022-11-16T05:36:58.865Z,95613.63
2022-11-16T05:38:00.749Z,95612.00
2022-11-16T05:39:02.588Z,95607.63
2022-11-16T05:40:05.178Z,95604.66
2022-11-16T05:41:06.977Z,95606.22
2022-11-16T05:42:09.157Z,95600.47
2022-11-16T05:43:11.622Z,95603.28
2022-11-16T05:44:14.022Z,95595.16
2022-11-16T05:45:20.833Z,95597.56
2022-11-16T05:46:23.698Z,95594.16
2022-11-16T05:47:25.543Z,95598.50
2022-11-16T05:48:27.279Z,95595.34
2022-11-16T05:49:29.070Z,95597.91
2022-11-16T05:50:30.985Z,95599.28
2022-11-16T05:51:32.778Z,95602.06
2022-11-16T05:52:34.876Z,95603.06
2022-11-16T05:53:36.693Z,95612.00
2022-11-16T05:54:38.490Z,95603.22
2022-11-16T05:55:40.358Z,95606.19
2022-11-16T05:56:42.473Z,95606.00
2022-11-16T05:57:44.365Z,95604.59
2022-11-16T05:58:46.578Z,95605.19
2022-11-16T05:59:48.471Z,95603.19
2022-11-16T06:00:51.492Z,95599.19
2022-11-16T06:01:53.449Z,95610.72
2022-11-16T06:02:55.806Z,95607.53
2022-11-16T06:04:01.496Z,95608.13
2022-11-16T06:05:03.410Z,95604.94
2022-11-16T06:06:05.646Z,95604.78
2022-11-16T06:07:07.492Z,95611.72
2022-11-16T06:08:09.426Z,95612.94
2022-11-16T06:09:12.266Z,95610.34
2022-11-16T06:10:14.105Z,95614.75
2022-11-16T06:11:15.975Z,95609.78
2022-11-16T06:12:17.882Z,95613.16
2022-11-16T06:13:19.749Z,95612.16
2022-11-16T06:14:21.632Z,95624.31
2022-11-16T06:15:23.407Z,95617.34
2022-11-16T06:16:25.302Z,95616.75
2022-11-16T06:17:27.148Z,95625.09
2022-11-16T06:18:29.136Z,95621.91
2022-11-16T06:19:32.676Z,95625.06
2022-11-16T06:20:35.478Z,95619.50
2022-11-16T06:21:37.290Z,95627.66
2022-11-16T06:22:39.139Z,95624.69
2022-11-16T06:23:41.087Z,95615.50
2022-11-16T06:24:42.911Z,95617.06
2022-11-16T06:25:45.140Z,95630.22
2022-11-16T06:26:47.437Z,95626.84
2022-11-16T06:27:49.256Z,95627.47
2022-11-16T06:28:51.161Z,95620.72
2022-11-16T06:29:53.009Z,95625.72
2022-11-16T06:30:54.946Z,95628.50
2022-11-16T06:31:56.757Z,95631.28
2022-11-16T06:32:58.545Z,95627.03
2022-11-16T06:34:00.479Z,95624.25
2022-11-16T06:35:02.293Z,95632.41
2022-11-16T06:36:04.252Z,95635.59
2022-11-16T06:37:06.216Z,95638.78
2022-11-16T06:38:08.054Z,95627.19
2022-11-16T06:39:11.728Z,95639.56
2022-11-16T06:40:13.653Z,95630.22
2022-11-16T06:41:15.548Z,95638.56
2022-11-16T06:42:17.446Z,95645.31
2022-11-16T06:43:19.724Z,95631.00
2022-11-16T06:44:21.734Z,95632.38
2022-11-16T06:45:23.838Z,95628.41
2022-11-16T06:46:25.827Z,95638.56
2022-11-16T06:47:27.621Z,95634.56
2022-11-16T06:48:30.766Z,95634.13
2022-11-16T06:49:32.803Z,95638.34
2022-11-16T06:50:34.909Z,95641.50
2022-11-16T06:51:36.652Z,95630.13
2022-11-16T06:52:38.539Z,95633.31
2022-11-16T06:53:40.790Z,95635.13
2022-11-16T06:54:42.588Z,95637.31
2022-11-16T06:55:44.479Z,95632.47
2022-11-16T06:56:46.306Z,95640.44
2022-11-16T06:57:48.224Z,95638.84
2022-11-16T06:58:53.317Z,95638.63
2022-11-16T06:59:55.578Z,95639.03
2022-11-16T07:00:58.157Z,95644.41
2022-11-16T07:01:59.930Z,95646.81
2022-11-16T07:03:05.095Z,95644.81
2022-11-16T07:04:06.992Z,95643.22
2022-11-16T07:05:08.875Z,95642.03
2022-11-16T07:06:11.770Z,95645.03
2022-11-16T07:07:13.591Z,95644.06
2022-11-16T07:08:15.530Z,95650.88
2022-11-16T07:09:17.557Z,95656.47
2022-11-16T07:10:19.385Z,95659.44
2022-11-16T07:11:21.186Z,95655.66
2022-11-16T07:12:23.074Z,95651.06
2022-11-16T07:13:24.903Z,95661.22
2022-11-16T07:14:26.749Z,95654.22
2022-11-16T07:15:28.545Z,95656.41
2022-11-16T07:16:30.350Z,95658.38
2022-11-16T07:17:33.406Z,95659.75
2022-11-16T07:18:36.597Z,95656.38
2022-11-16T07:19:38.850Z,95657.38
2022-11-16T07:20:40.616Z,95658.78
2022-11-16T07:21:42.451Z,95653.94
2022-11-16T07:22:44.392Z,95657.94
2022-11-16T07:23:46.273Z,95662.69
2022-11-16T07:24:48.259Z,95660.88
2022-11-16T07:25:50.073Z,95661.47
2022-11-16T07:26:51.928Z,95657.13
2022-11-16T07:27:53.778Z,95661.88
2022-11-16T07:28:55.717Z,95663.47
2022-11-16T07:29:57.657Z,95656.69
2022-11-16T07:31:03.340Z,95662.88
2022-11-16T07:32:05.170Z,95664.88
2022-11-16T07:33:07.130Z,95671.25
2022-11-16T07:34:08.954Z,95662.91
2022-11-16T07:35:10.920Z,95668.91
2022-11-16T07:36:14.221Z,95665.09
2022-11-16T07:37:16.025Z,95675.03
2022-11-16T07:38:18.270Z,95670.66
2022-11-16T07:39:22.070Z,95669.47
2022-11-16T07:40:23.997Z,95665.94
2022-11-16T07:41:25.899Z,95672.72
2022-11-16T07:42:27.705Z,95671.88
2022-11-16T07:43:31.973Z,95670.28
2022-11-16T07:44:33.862Z,95675.41
2022-11-16T07:45:35.931Z,95675.00
2022-11-16T07:46:46.664Z,95682.34
2022-11-16T07:47:52.582Z,95681.94
2022-11-16T07:48:54.390Z,95673.75
2022-11-16T07:49:56.239Z,95676.91
2022-11-16T07:51:05.978Z,95675.94
2022-11-16T07:52:11.283Z,95686.13
2022-11-16T07:53:13.067Z,95681.72
2022-11-16T07:54:15.394Z,95677.72
2022-11-16T07:55:17.272Z,95686.69
2022-11-16T07:56:19.032Z,95690.66
2022-11-16T07:57:21.003Z,95688.66
2022-11-16T07:58:22.974Z,95689.22
2022-11-16T07:59:24.771Z,95698.59
2022-11-16T08:00:26.692Z,95704.00
2022-11-16T08:01:28.727Z,95702.41
2022-11-16T08:02:30.654Z,95697.66
2022-11-16T08:03:33.062Z,95704.41
2022-11-16T08:04:34.925Z,95704.59
2022-11-16T08:05:36.714Z,95711.59
2022-11-16T08:06:38.526Z,95715.56
2022-11-16T08:07:40.499Z,95713.16
2022-11-16T08:08:42.569Z,95708.34
2022-11-16T08:09:44.475Z,95716.28
2022-11-16T08:10:46.321Z,95713.50
2022-11-16T08:11:48.168Z,95717.06
2022-11-16T08:12:50.199Z,95724.66
2022-11-16T08:13:52.010Z,95717.91
2022-11-16T08:14:53.802Z,95724.66
2022-11-16T08:15:55.635Z,95726.03
2022-11-16T08:16:57.498Z,95722.81
2022-11-16T08:17:59.438Z,95733.59
2022-11-16T08:19:01.453Z,95731.59
2022-11-16T08:20:03.258Z,95727.75
2022-11-16T08:21:06.240Z,95738.13
2022-11-16T08:22:08.318Z,95742.94
2022-11-16T08:23:10.829Z,95741.13
2022-11-16T08:24:12.749Z,95750.53
2022-11-16T08:25:14.480Z,95753.97
2022-11-16T08:26:17.541Z,95760.56
2022-11-16T08:27:19.402Z,95762.16
2022-11-16T08:28:21.333Z,95764.16
2022-11-16T08:29:23.209Z,95763.75
2022-11-16T08:30:25.041Z,95763.75
2022-11-16T08:31:28.030Z,95753.78
2022-11-16T08:32:30.368Z,95756.75
2022-11-16T08:33:32.298Z,95757.13
2022-11-16T08:34:34.153Z,95760.91
2022-11-16T08:35:36.438Z,95757.88
2022-11-16T08:36:38.281Z,95759.88
2022-11-16T08:37:40.053Z,95757.84
2022-11-16T08:38:41.836Z,95759.22
2022-11-16T08:39:43.780Z,95762.22
2022-11-16T08:40:45.809Z,95768.78
2022-11-16T08:41:47.840Z,95761.56
2022-11-16T08:42:49.728Z,95760.00
2022-11-16T08:43:53.631Z,95766.81
2022-11-16T08:44:55.523Z,95765.22
2022-11-16T08:45:57.781Z,95758.78
2022-11-16T08:46:59.723Z,95771.38
2022-11-16T08:48:04.037Z,95764.16
2022-11-16T08:49:06.311Z,95771.50
2022-11-16T08:50:08.297Z,95771.91
2022-11-16T08:51:18.883Z,95776.25
2022-11-16T08:52:21.662Z,95776.56
2022-11-16T08:53:23.409Z,95778.91
2022-11-16T08:54:25.379Z,95767.47
2022-11-16T08:55:27.370Z,95763.22
2022-11-16T08:56:30.444Z,95772.19
2022-11-16T08:57:32.252Z,95771.78
2022-11-16T08:58:34.488Z,95773.78
2022-11-16T08:59:36.724Z,95773.53
2022-11-16T09:00:38.623Z,95774.38
2022-11-16T09:01:40.512Z,95783.31
2022-11-16T09:02:42.285Z,95776.09
2022-11-16T09:03:44.341Z,95774.56
2022-11-16T09:04:46.183Z,95781.91
2022-11-16T09:05:48.032Z,95780.28
2022-11-16T09:06:49.844Z,95774.66
2022-11-16T09:07:51.622Z,95773.25
2022-11-16T09:08:54.047Z,95775.84
2022-11-16T09:09:55.946Z,95777.84
2022-11-16T09:10:57.836Z,95777.28
2022-11-16T09:11:59.577Z,95776.25
2022-11-16T09:13:01.477Z,95782.59
2022-11-16T09:14:03.351Z,95780.59
2022-11-16T09:15:06.451Z,95782.53
2022-11-16T09:16:08.420Z,95784.50
2022-11-16T09:17:10.248Z,95777.28
2022-11-16T09:18:12.103Z,95782.50
2022-11-16T09:19:14.572Z,95775.47
2022-11-16T09:20:16.391Z,95779.44
2022-11-16T09:21:22.552Z,95776.44
2022-11-16T09:22:24.365Z,95781.44
2022-11-16T09:23:26.312Z,95784.03
2022-11-16T09:24:28.142Z,95778.00
2022-11-16T09:25:30.079Z,95776.81
2022-11-16T09:26:31.938Z,95778.97
2022-11-16T09:27:33.838Z,95784.75
2022-11-16T09:28:36.036Z,95782.94
2022-11-16T09:29:38.116Z,95779.16
2022-11-16T09:30:40.129Z,95781.97
2022-11-16T09:31:42.408Z,95777.75
2022-11-16T09:32:44.260Z,95771.13
2022-11-16T09:33:48.028Z,95772.28
2022-11-16T09:34:49.813Z,95778.88
2022-11-16T09:35:51.709Z,95775.81
2022-11-16T09:36:53.684Z,95765.41
2022-11-16T09:37:55.505Z,95769.81
2022-11-16T09:40:19.596Z,95762.19
2022-11-16T09:41:30.700Z,95762.97
2022-11-16T09:42:59.306Z,95763.34
2022-11-16T09:44:12.856Z,95754.31
2022-11-16T09:45:27.531Z,95761.88
2022-11-16T09:46:41.735Z,95752.84
2022-11-16T09:47:45.923Z,95756.81
2022-11-16T09:48:48.909Z,95760.00
2022-11-16T09:49:59.853Z,95759.19
2022-11-16T09:51:08.550Z,95759.19
2022-11-16T09:52:15.100Z,95758.41
2022-11-16T09:53:21.711Z,95756.38
2022-11-16T09:54:26.197Z,95760.56
2022-11-16T09:55:37.620Z,95755.94
2022-11-16T09:56:40.689Z,95756.72
2022-11-16T09:57:42.641Z,95753.34
2022-11-16T09:58:50.117Z,95749.75
2022-11-16T09:59:54.792Z,95753.91
2022-11-16T10:00:59.580Z,95759.56
2022-11-16T10:02:17.102Z,95755.66
2022-11-16T10:03:19.023Z,95758.84
2022-11-16T10:04:37.320Z,95755.81
2022-11-16T10:05:57.300Z,95760.56
2022-11-16T10:07:01.322Z,95761.34
2022-11-16T10:08:06.829Z,95750.38
2022-11-16T10:09:11.418Z,95750.38
2022-11-16T10:10:17.180Z,95751.19
2022-11-16T10:11:37.400Z,95756.16
2022-11-16T10:12:56.049Z,95753.56
2022-11-16T10:14:26.951Z,95745.41
2022-11-16T10:15:34.589Z,95748.53
2022-11-16T10:16:56.594Z,95751.63
2022-11-16T10:17:58.335Z,95757.13
2022-11-16T10:19:18.337Z,95751.91
2022-11-16T10:20:20.215Z,95749.69
2022-11-16T10:21:28.012Z,95742.69
2022-11-16T10:22:47.210Z,95745.44
2022-11-16T10:24:01.322Z,95746.78
2022-11-16T10:25:09.226Z,95740.94
2022-11-16T10:26:26.223Z,95735.31
2022-11-16T10:27:28.010Z,95743.13
2022-11-16T10:28:32.861Z,95742.28
2022-11-16T10:29:37.755Z,95736.88
2022-11-16T10:30:44.412Z,95733.91
2022-11-16T10:31:55.313Z,95729.53
2022-11-16T10:33:03.591Z,95736.19
2022-11-16T10:34:09.188Z,95735.94
2022-11-16T10:35:10.949Z,95727.34
2022-11-16T10:36:16.272Z,95723.75
2022-11-16T10:37:18.253Z,95733.13
2022-11-16T10:38:25.592Z,95726.13
2022-11-16T10:39:27.878Z,95730.09
2022-11-16T10:40:30.944Z,95724.47
2022-11-16T10:41:37.788Z,95727.16
2022-11-16T10:42:39.719Z,95726.28
2022-11-16T10:43:42.541Z,95725.06
2022-11-16T10:44:46.830Z,95718.84
2022-11-16T10:45:56.250Z,95724.38
2022-11-16T10:47:03.755Z,95729.53
2022-11-16T10:48:24.567Z,95728.09
2022-11-16T10:49:31.009Z,95725.03
2022-11-16T10:50:47.085Z,95723.00
2022-11-16T10:51:48.877Z,95714.22
2022-11-16T10:52:50.730Z,95720.41
2022-11-16T10:53:53.488Z,95726.06
2022-11-16T10:54:55.384Z,95724.34
2022-11-16T10:56:03.370Z,95719.72
2022-11-16T10:57:09.051Z,95717.69
2022-11-16T10:58:10.963Z,95730.03
2022-11-16T10:59:15.909Z,95722.00
2022-11-16T11:00:33.466Z,95732.97
2022-11-16T11:01:38.575Z,95726.53
2022-11-16T11:02:48.628Z,95727.53
2022-11-16T11:03:51.279Z,95727.22
2022-11-16T11:05:03.645Z,95729.22
2022-11-16T11:06:06.455Z,95716.66
2022-11-16T11:07:26.753Z,95722.31
2022-11-16T11:08:32.316Z,95730.09
2022-11-16T11:09:35.700Z,95729.66
2022-11-16T11:10:41.537Z,95724.25
2022-11-16T11:12:15.781Z,95722.78
2022-11-16T11:13:26.885Z,95715.34
2022-11-16T11:14:28.663Z,95726.09
2022-11-16T11:15:30.568Z,95725.09
2022-11-16T11:16:33.055Z,95721.69
2022-11-16T11:17:35.850Z,95719.53
2022-11-16T11:18:37.656Z,95723.94
2022-11-16T11:19:39.558Z,95716.34
2022-11-16T11:20:45.117Z,95720.41
2022-11-16T11:21:47.591Z,95720.91
2022-11-16T11:22:56.103Z,95718.56
2022-11-16T11:24:16.386Z,95714.94
2022-11-16T11:25:22.909Z,95723.75
2022-11-16T11:26:36.262Z,95724.53
2022-11-16T11:27:38.717Z,95726.78
2022-11-16T11:28:46.817Z,95725.22
2022-11-16T11:29:51.734Z,95714.66
2022-11-16T11:30:59.199Z,95717.03
2022-11-16T11:32:04.557Z,95717.16
2022-11-16T11:33:11.728Z,95719.78
2022-11-16T11:34:19.574Z,95724.97
2022-11-16T11:35:29.585Z,95718.56
2022-11-16T11:36:38.734Z,95711.34
2022-11-16T11:37:40.967Z,95701.72
2022-11-16T11:39:15.080Z,95706.47
2022-11-16T11:40:29.809Z,95714.06
2022-11-16T11:41:36.880Z,95716.66
2022-11-16T11:42:41.633Z,95717.22
2022-11-16T11:43:43.436Z,95706.81
2022-11-16T11:44:50.594Z,95706.81
2022-11-16T11:46:09.836Z,95703.66
2022-11-16T11:48:00.336Z,95704.91
2022-11-16T11:48:57.630Z,95701.84
2022-11-16T11:50:06.745Z,95707.63
2022-11-16T11:51:15.553Z,95710.56
2022-11-16T11:52:21.362Z,95709.78
2022-11-16T11:53:26.233Z,95700.47
2022-11-16T11:54:44.572Z,95702.09
2022-11-16T11:55:48.142Z,95707.28
2022-11-16T11:56:49.980Z,95699.25
2022-11-16T11:57:53.941Z,95693.81
2022-11-16T11:58:56.675Z,95705.69
2022-11-16T11:59:58.508Z,95707.28
2022-11-16T12:01:09.340Z,95702.13
2022-11-16T12:02:26.212Z,95703.84
2022-11-16T12:03:28.334Z,95697.47
2022-11-16T12:04:35.758Z,95695.72
2022-11-16T12:05:43.265Z,95695.31
2022-11-16T12:06:51.644Z,95693.84
2022-11-16T12:08:10.731Z,95695.22
2022-11-16T12:09:12.498Z,95692.84
2022-11-16T12:10:14.291Z,95697.03
2022-11-16T12:11:45.215Z,95690.59
2022-11-16T12:12:49.891Z,95689.59
2022-11-16T12:14:00.729Z,95688.66
2022-11-16T12:15:21.346Z,95685.47
2022-11-16T12:16:32.573Z,95691.69
2022-11-16T12:17:41.523Z,95693.06
2022-11-16T12:18:49.203Z,95685.63
2022-11-16T12:20:11.260Z,95689.38
2022-11-16T12:21:20.176Z,95696.94
2022-11-16T12:22:34.236Z,95681.78
2022-11-16T12:23:42.294Z,95684.59
2022-11-16T12:24:47.245Z,95688.56
2022-11-16T12:25:51.842Z,95683.81
2022-11-16T12:26:53.619Z,95687.88
2022-11-16T12:28:04.720Z,95696.47
2022-11-16T12:29:25.308Z,95686.06
2022-11-16T12:30:27.363Z,95683.47
2022-11-16T12:31:38.073Z,95679.50
2022-11-16T12:32:58.353Z,95685.13
2022-11-16T12:34:28.488Z,95682.53
2022-11-16T12:35:30.653Z,95682.31
2022-11-16T12:36:44.777Z,95682.31
2022-11-16T12:37:49.496Z,95677.41
2022-11-16T12:39:04.331Z,95676.16
2022-11-16T12:40:12.318Z,95674.94
2022-11-16T12:41:14.099Z,95676.59
2022-11-16T12:42:22.367Z,95676.66
2022-11-16T12:43:47.292Z,95668.44
2022-11-16T12:45:02.595Z,95668.22
2022-11-16T12:46:25.688Z,95659.78
2022-11-16T12:47:27.462Z,95661.38
2022-11-16T12:48:29.224Z,95669.63
2022-11-16T12:49:33.863Z,95670.75
2022-11-16T12:50:35.579Z,95664.13